Terminal Aerodrome Forecast
Issued by NWS Upton, NY

Home | Current Version | Previous Version | Text Only | Print | Product List | Glossary On
Versions: 1 2 3 4 5 6 7 8 9 10 11 12 13 14 15 16 17 18 19 20 21 22 23 24 25 26 27 28 29
448
FTUS41 KOKX 251633 AAD
TAFISP
TAF AMD
KISP 251633Z 2517/2612 06014G24KT 3SM -RA BR OVC008
     FM251800 06017G25KT 5SM -RA BR OVC007
     FM252200 06017G24KT 1SM RA BR OVC006 WS020/11045KT
     FM260300 07015G22KT 1SM RA BR OVC004 WS020/14045KT
     FM260600 09014G20KT 1SM -RA OVC004
     FM260900 08011KT 1SM -RA OVC004=

USA.gov is the U.S. government's official web portal to all federal, state and local government web resources and services.